Time;durP1;ratioP1;P1;durP2;ratioP2;P2;SDS_P1;SDS_P2;PMS_P1;PMS_P2;Temp;Humidity;BMP_temperature;BMP_pressure;BME280_temperature;BME280_humidity;BME280_pressure;Samples;Min_cycle;Max_cycle;Signal;HPM_P1;HPM_P2
2023/06/22 00:01:48;;;;;;;7.17;6.50;;;21.40;99.90;;;;;;5109260;27;20478;-57
2023/06/22 00:04:16;;;;;;;7.50;6.80;;;21.50;99.90;;;;;;5101418;28;20546;-58
2023/06/22 00:06:43;;;;;;;8.07;7.37;;;21.50;99.90;;;;;;5098814;28;20492;-58
2023/06/22 00:09:10;;;;;;;9.07;8.20;;;21.40;99.90;;;;;;5098862;28;20915;-58
2023/06/22 00:11:38;;;;;;;8.43;7.73;;;21.30;99.90;;;;;;5097575;28;20478;-58
2023/06/22 00:14:06;;;;;;;7.57;6.93;;;21.30;99.90;;;;;;5111403;28;20562;-58
2023/06/22 00:16:34;;;;;;;7.40;6.80;;;21.30;99.90;;;;;;5118774;28;20459;-58
2023/06/22 00:19:03;;;;;;;16.73;7.60;;;21.30;99.90;;;;;;5119051;28;20463;-58
2023/06/22 00:21:31;;;;;;;8.07;6.87;;;21.30;99.90;;;;;;5118525;28;20516;-58
2023/06/22 00:23:58;;;;;;;8.30;7.57;;;21.20;99.90;;;;;;5119010;28;20569;-58
2023/06/22 00:26:25;;;;;;;8.67;7.90;;;21.30;99.90;;;;;;5118808;28;20584;-59
2023/06/22 00:28:52;;;;;;;8.37;7.67;;;21.20;99.90;;;;;;5118197;28;20516;-58
2023/06/22 00:31:21;;;;;;;9.23;7.97;;;21.20;99.90;;;;;;5117823;28;20506;-59
2023/06/22 00:33:50;;;;;;;7.73;7.03;;;21.20;99.90;;;;;;5118752;28;20908;-58
2023/06/22 00:36:18;;;;;;;6.90;6.30;;;21.20;99.90;;;;;;5118726;28;20945;-58
2023/06/22 00:38:46;;;;;;;7.23;6.63;;;21.10;99.90;;;;;;5118954;28;20460;-59
2023/06/22 00:41:13;;;;;;;7.23;6.70;;;21.10;99.90;;;;;;5118497;28;20465;-58
2023/06/22 00:43:41;;;;;;;7.17;6.43;;;21.10;99.90;;;;;;5117443;28;20829;-58
2023/06/22 00:46:09;;;;;;;8.80;7.90;;;21.10;99.90;;;;;;5109951;28;20897;-58
2023/06/22 00:48:38;;;;;;;7.30;6.67;;;21.00;99.90;;;;;;5118539;28;20729;-58
2023/06/22 00:51:05;;;;;;;7.63;6.83;;;21.00;99.90;;;;;;5117918;28;20487;-56
2023/06/22 00:53:35;;;;;;;8.20;7.50;;;21.00;99.90;;;;;;5118424;28;20468;-56
2023/06/22 00:56:03;;;;;;;7.10;6.27;;;21.00;99.90;;;;;;5118281;28;20468;-58
2023/06/22 00:58:31;;;;;;;7.87;7.17;;;21.00;99.90;;;;;;5118319;28;20770;-58
2023/06/22 01:00:59;;;;;;;7.63;7.03;;;21.00;99.90;;;;;;5117574;28;20477;-58
2023/06/22 01:03:26;;;;;;;7.33;6.73;;;21.10;99.90;;;;;;5117807;28;20490;-57
2023/06/22 01:06:03;;;;;;;7.67;6.87;;;21.10;99.90;;;;;;5118322;28;20455;-58
2023/06/22 01:08:37;;;;;;;11.10;7.27;;;21.10;99.90;;;;;;5118244;28;20497;-58
2023/06/22 01:11:10;;;;;;;6.97;6.33;;;21.20;99.90;;;;;;5117811;28;20460;-58
2023/06/22 01:13:46;;;;;;;10.70;6.20;;;21.10;99.90;;;;;;5118358;28;20835;-58
2023/06/22 01:16:28;;;;;;;7.00;6.13;;;21.10;99.90;;;;;;5118123;28;20543;-58
2023/06/22 01:18:58;;;;;;;7.90;7.20;;;21.10;99.90;;;;;;5117398;28;20545;-57
2023/06/22 01:21:30;;;;;;;7.27;6.57;;;21.10;99.90;;;;;;5117364;28;20558;-58
2023/06/22 01:24:11;;;;;;;6.27;5.73;;;21.10;99.90;;;;;;5117220;28;20994;-58
2023/06/22 01:26:46;;;;;;;6.93;6.30;;;21.10;99.90;;;;;;5117836;28;20459;-57
2023/06/22 01:29:17;;;;;;;8.60;7.80;;;21.00;99.90;;;;;;5117380;28;20440;-57
2023/06/22 01:31:46;;;;;;;7.83;7.13;;;21.00;99.90;;;;;;5111874;28;20786;-56
2023/06/22 01:34:15;;;;;;;10.93;7.43;;;20.90;99.90;;;;;;5097780;28;20869;-58
2023/06/22 01:36:42;;;;;;;7.70;7.10;;;20.90;99.90;;;;;;5114630;28;20471;-58
2023/06/22 01:39:10;;;;;;;9.83;7.00;;;20.90;99.90;;;;;;5117261;28;20555;-58
2023/06/22 01:41:40;;;;;;;8.60;7.70;;;20.90;99.90;;;;;;5117266;28;20455;-56
2023/06/22 01:44:08;;;;;;;8.50;7.70;;;20.90;99.90;;;;;;5117961;28;20546;-57
2023/06/22 01:46:37;;;;;;;8.43;7.63;;;20.80;99.90;;;;;;5105458;28;20845;-58
2023/06/22 01:49:05;;;;;;;6.77;6.17;;;20.80;99.90;;;;;;5097051;28;20470;-58
2023/06/22 01:51:32;;;;;;;8.50;7.70;;;20.80;99.90;;;;;;5112605;28;20562;-58
2023/06/22 01:54:00;;;;;;;7.87;7.17;;;20.70;99.90;;;;;;5117401;28;20491;-58
2023/06/22 01:56:27;;;;;;;8.10;7.30;;;20.70;99.90;;;;;;5117484;28;20499;-59
2023/06/22 01:59:01;;;;;;;8.90;7.33;;;20.70;99.90;;;;;;5117440;28;20456;-59
2023/06/22 02:01:33;;;;;;;8.10;7.40;;;20.70;99.90;;;;;;5117157;28;20459;-59
2023/06/22 02:04:07;;;;;;;9.60;7.53;;;20.60;99.90;;;;;;5117010;28;20487;-59
2023/06/22 02:06:38;;;;;;;8.20;7.30;;;20.60;99.90;;;;;;5117086;28;20459;-59
2023/06/22 02:09:10;;;;;;;7.50;6.70;;;20.60;99.90;;;;;;5117646;28;20865;-59
2023/06/22 02:11:40;;;;;;;8.13;7.43;;;20.50;99.90;;;;;;5117393;28;20460;-59
2023/06/22 02:14:08;;;;;;;9.63;7.90;;;20.50;99.90;;;;;;5117612;28;20803;-59
2023/06/22 02:16:37;;;;;;;9.03;8.23;;;20.40;99.90;;;;;;5116109;28;20503;-58
2023/06/22 02:19:08;;;;;;;8.80;7.87;;;20.40;99.90;;;;;;5116782;28;20463;-59
2023/06/22 02:21:35;;;;;;;8.97;8.17;;;20.40;99.90;;;;;;5116203;28;20473;-59
2023/06/22 02:24:03;;;;;;;9.97;9.07;;;20.30;99.90;;;;;;5117420;28;20465;-59
2023/06/22 02:26:31;;;;;;;8.50;7.70;;;20.30;99.90;;;;;;5117033;28;20451;-59
2023/06/22 02:28:58;;;;;;;9.20;8.33;;;20.30;99.90;;;;;;5116853;28;20490;-59
2023/06/22 02:31:30;;;;;;;10.60;8.80;;;20.20;99.90;;;;;;5117333;28;20520;-59
2023/06/22 02:33:58;;;;;;;9.40;8.60;;;20.20;99.90;;;;;;5117108;28;20464;-59
2023/06/22 02:36:30;;;;;;;9.87;7.87;;;20.20;99.90;;;;;;5120421;28;20537;-59
2023/06/22 02:39:00;;;;;;;8.07;7.47;;;20.10;99.90;;;;;;5121207;28;20481;-59
2023/06/22 02:41:28;;;;;;;9.97;8.33;;;20.10;99.90;;;;;;5120751;27;20563;-59
2023/06/22 02:43:55;;;;;;;10.90;8.70;;;20.10;99.90;;;;;;5118309;28;20798;-59
2023/06/22 02:46:22;;;;;;;11.33;8.83;;;20.00;99.90;;;;;;5109373;28;20472;-59
2023/06/22 02:48:49;;;;;;;9.93;9.03;;;20.00;99.90;;;;;;5099824;28;20488;-59
2023/06/22 02:51:17;;;;;;;10.10;9.20;;;19.90;99.90;;;;;;5112952;28;20462;-59
2023/06/22 02:53:45;;;;;;;9.30;8.50;;;19.90;99.90;;;;;;5120331;28;20459;-57
2023/06/22 02:56:30;;;;;;;11.10;10.20;;;19.90;99.90;;;;;;5120565;28;20919;-59
2023/06/22 02:59:00;;;;;;;10.40;9.40;;;19.90;99.90;;;;;;5120553;27;20463;-58
2023/06/22 03:01:29;;;;;;;10.07;9.07;;;19.90;99.90;;;;;;5120396;28;20951;-59
2023/06/22 03:03:57;;;;;;;10.30;9.40;;;19.90;99.90;;;;;;5120507;28;20965;-58
2023/06/22 03:06:28;;;;;;;10.67;9.60;;;19.90;99.90;;;;;;5120546;28;20565;-59
2023/06/22 03:09:00;;;;;;;9.67;8.77;;;19.90;99.90;;;;;;5120333;28;20527;-59
2023/06/22 03:11:27;;;;;;;10.80;9.73;;;19.90;99.90;;;;;;5120027;28;20502;-59
2023/06/22 03:13:54;;;;;;;11.57;10.50;;;19.90;99.90;;;;;;5120075;28;20499;-59
2023/06/22 03:16:21;;;;;;;10.97;8.93;;;20.00;99.90;;;;;;5120130;28;20459;-58
2023/06/22 03:18:49;;;;;;;13.80;10.43;;;20.00;99.90;;;;;;5120262;28;20794;-59
2023/06/22 03:21:16;;;;;;;10.57;9.57;;;20.00;99.90;;;;;;5120022;28;20493;-58
2023/06/22 03:23:43;;;;;;;11.30;10.40;;;20.00;99.90;;;;;;5120035;28;20931;-59
2023/06/22 03:26:12;;;;;;;12.60;11.30;;;20.00;99.90;;;;;;5120251;28;20459;-59
2023/06/22 03:28:40;;;;;;;12.00;10.80;;;20.00;99.90;;;;;;5119839;28;20585;-59
2023/06/22 03:31:07;;;;;;;11.17;10.17;;;20.00;99.90;;;;;;5118266;28;20460;-59
2023/06/22 03:33:34;;;;;;;11.23;10.17;;;20.00;99.90;;;;;;5117946;28;20462;-59
2023/06/22 03:36:02;;;;;;;11.73;10.57;;;19.90;99.90;;;;;;5118363;28;20561;-57
2023/06/22 03:38:29;;;;;;;13.37;11.80;;;19.90;99.90;;;;;;5117490;28;20550;-59
2023/06/22 03:40:56;;;;;;;11.53;10.33;;;19.90;99.90;;;;;;5118190;28;20460;-57
2023/06/22 03:43:25;;;;;;;11.87;10.77;;;19.90;99.90;;;;;;5116428;28;20543;-59
2023/06/22 03:45:52;;;;;;;13.10;11.80;;;20.00;99.90;;;;;;5112490;28;20495;-59
2023/06/22 03:48:19;;;;;;;11.63;10.63;;;20.00;99.90;;;;;;5119291;28;20487;-59
2023/06/22 03:50:46;;;;;;;11.97;10.87;;;20.00;99.90;;;;;;5119695;28;20456;-57
2023/06/22 03:53:14;;;;;;;11.00;10.00;;;20.10;99.90;;;;;;5119824;28;20462;-59
2023/06/22 03:55:49;;;;;;;12.00;10.90;;;20.00;99.90;;;;;;5119525;28;20733;-59
2023/06/22 03:58:18;;;;;;;10.70;9.73;;;20.10;99.90;;;;;;5119723;28;20463;-58
2023/06/22 04:00:48;;;;;;;11.40;10.23;;;20.10;99.90;;;;;;5119725;28;20464;-59
2023/06/22 04:03:15;;;;;;;11.40;10.40;;;20.10;99.90;;;;;;5119166;28;20491;-59
2023/06/22 04:05:42;;;;;;;11.90;10.90;;;20.20;99.90;;;;;;5119325;28;20541;-59
2023/06/22 04:08:10;;;;;;;11.40;10.20;;;20.20;99.90;;;;;;5119587;28;20573;-59
2023/06/22 04:10:37;;;;;;;10.97;9.60;;;20.20;99.90;;;;;;5119445;28;20495;-58
2023/06/22 04:13:04;;;;;;;10.73;9.80;;;20.20;99.90;;;;;;5118912;28;20459;-59
2023/06/22 04:15:31;;;;;;;11.27;10.17;;;20.30;99.90;;;;;;5118506;28;20499;-59
2023/06/22 04:18:00;;;;;;;11.70;10.60;;;20.40;99.90;;;;;;5118983;28;20455;-59
2023/06/22 04:20:27;;;;;;;11.07;10.00;;;20.30;99.90;;;;;;5118913;28;20499;-57
2023/06/22 04:22:55;;;;;;;12.10;10.93;;;20.40;99.90;;;;;;5118597;28;20782;-58
2023/06/22 04:25:23;;;;;;;11.47;10.40;;;20.40;99.90;;;;;;5118699;28;20803;-59
2023/06/22 04:27:50;;;;;;;11.03;10.10;;;20.40;99.90;;;;;;5118681;28;20574;-58
2023/06/22 04:30:18;;;;;;;12.37;11.20;;;20.50;99.90;;;;;;5119072;28;20463;-57
2023/06/22 04:32:45;;;;;;;11.80;10.70;;;20.40;99.90;;;;;;5118329;28;20496;-59
2023/06/22 04:35:15;;;;;;;11.40;10.40;;;20.40;99.90;;;;;;5118748;28;20888;-59
2023/06/22 04:37:43;;;;;;;13.10;11.90;;;20.50;99.90;;;;;;5118654;28;20455;-59
2023/06/22 04:40:12;;;;;;;12.77;11.57;;;20.50;99.90;;;;;;5118799;28;20734;-59
2023/06/22 04:42:40;;;;;;;12.60;11.50;;;20.50;99.90;;;;;;5118873;28;20516;-58
2023/06/22 04:45:10;;;;;;;11.23;10.13;;;20.50;99.90;;;;;;5118348;28;20490;-58
2023/06/22 04:47:39;;;;;;;11.40;10.40;;;20.50;99.90;;;;;;5101580;28;20563;-58
2023/06/22 04:50:07;;;;;;;10.90;10.03;;;20.50;99.90;;;;;;5097942;28;20885;-59
2023/06/22 04:52:36;;;;;;;11.67;10.63;;;20.60;99.90;;;;;;5098047;28;20563;-58
2023/06/22 04:55:03;;;;;;;12.47;9.60;;;20.60;99.90;;;;;;5097477;28;20737;-58
2023/06/22 04:57:32;;;;;;;11.73;10.53;;;20.60;99.90;;;;;;5097785;28;20479;-58
2023/06/22 05:00:16;;;;;;;14.43;11.50;;;20.70;99.90;;;;;;5097981;28;20482;-58
2023/06/22 05:02:44;;;;;;;11.40;10.13;;;20.70;99.90;;;;;;5114659;28;20499;-58
2023/06/22 05:05:13;;;;;;;12.07;11.07;;;20.70;99.90;;;;;;5117792;28;20470;-58
2023/06/22 05:07:44;;;;;;;12.90;11.53;;;20.60;99.90;;;;;;5118059;28;20463;-58
2023/06/22 05:10:12;;;;;;;11.77;10.57;;;20.60;99.90;;;;;;5117711;28;20464;-59
2023/06/22 05:12:40;;;;;;;12.70;11.60;;;20.60;99.90;;;;;;5117812;28;20460;-57
2023/06/22 05:15:09;;;;;;;12.13;11.00;;;20.70;99.90;;;;;;5117120;28;20474;-58
2023/06/22 05:17:36;;;;;;;12.17;10.97;;;20.70;99.90;;;;;;5117446;28;20635;-59
2023/06/22 05:20:06;;;;;;;12.23;11.17;;;20.70;99.90;;;;;;5117924;28;20563;-58
2023/06/22 05:22:33;;;;;;;12.60;11.50;;;20.70;99.90;;;;;;5118190;28;20467;-58
2023/06/22 05:25:02;;;;;;;13.60;12.40;;;20.80;1.00;;;;;;5117700;28;20460;-58
2023/06/22 05:31:41;;;;;;;13.33;12.13;;;20.80;1.00;;;;;;5114588;28;20895;-58
2023/06/22 05:34:08;;;;;;;12.20;11.10;;;21.00;99.90;;;;;;5097319;28;20559;-59
2023/06/22 05:36:35;;;;;;;14.00;12.70;;;21.10;99.90;;;;;;5096967;28;20468;-58
2023/06/22 05:39:12;;;;;;;12.63;11.33;;;21.10;99.90;;;;;;5096324;28;20769;-58
2023/06/22 05:41:41;;;;;;;13.17;11.87;;;21.10;99.90;;;;;;5096203;28;20509;-55
2023/06/22 05:44:08;;;;;;;13.30;12.10;;;21.00;99.90;;;;;;5096313;28;20456;-58
2023/06/22 05:46:35;;;;;;;12.53;11.20;;;21.20;99.90;;;;;;5097278;28;20889;-58
2023/06/22 05:49:02;;;;;;;11.13;9.93;;;21.20;99.90;;;;;;5096937;28;20495;-58
2023/06/22 05:51:30;;;;;;;14.13;12.73;;;21.20;99.90;;;;;;5096974;28;20460;-58
2023/06/22 05:53:57;;;;;;;13.00;11.80;;;21.30;99.90;;;;;;5097009;28;20461;-58
2023/06/22 05:56:24;;;;;;;13.20;10.87;;;21.30;99.90;;;;;;5097250;28;20460;-58
2023/06/22 05:58:52;;;;;;;13.83;12.40;;;21.40;99.90;;;;;;5096846;28;20905;-58
2023/06/22 06:01:20;;;;;;;15.30;11.53;;;21.40;99.90;;;;;;5097181;28;20886;-58
2023/06/22 06:03:49;;;;;;;14.10;12.77;;;21.40;99.90;;;;;;5096366;28;20496;-58
2023/06/22 06:06:16;;;;;;;13.73;12.53;;;21.40;99.90;;;;;;5097396;28;20468;-58
2023/06/22 06:08:43;;;;;;;12.73;11.60;;;21.50;99.90;;;;;;5097006;28;20488;-58
2023/06/22 06:11:10;;;;;;;11.90;10.70;;;21.70;99.90;;;;;;5099599;28;20439;-58
2023/06/22 06:13:37;;;;;;;13.07;11.77;;;21.80;1.00;;;;;;5101191;28;20464;-58
2023/06/22 06:16:06;;;;;;;12.93;11.70;;;21.90;1.00;;;;;;5101022;28;20483;-58
2023/06/22 06:18:33;;;;;;;13.37;12.07;;;21.90;1.00;;;;;;5100997;28;20539;-58
2023/06/22 06:21:00;;;;;;;12.47;11.37;;;21.90;1.00;;;;;;5100426;28;20464;-58
2023/06/22 06:23:27;;;;;;;14.00;12.73;;;22.00;1.00;;;;;;5103306;28;20475;-57
2023/06/22 06:25:54;;;;;;;13.07;11.87;;;22.00;1.00;;;;;;5120452;28;20822;-58
2023/06/22 06:28:21;;;;;;;13.00;11.57;;;22.00;1.00;;;;;;5120209;28;20487;-58
2023/06/22 06:30:49;;;;;;;13.80;12.60;;;22.00;99.90;;;;;;5119745;28;20552;-58
2023/06/22 06:33:17;;;;;;;12.70;11.40;;;22.00;99.90;;;;;;5120750;28;20459;-58
2023/06/22 06:35:44;;;;;;;15.33;11.70;;;21.80;99.90;;;;;;5121349;28;20482;-58
2023/06/22 06:38:11;;;;;;;13.80;11.87;;;21.80;99.90;;;;;;5121231;28;20467;-58
2023/06/22 06:40:39;;;;;;;11.50;10.50;;;21.80;99.90;;;;;;5121053;27;20546;-58
2023/06/22 06:43:06;;;;;;;12.63;11.20;;;21.80;1.00;;;;;;5120709;28;20459;-58
2023/06/22 06:45:34;;;;;;;12.03;10.93;;;21.70;99.90;;;;;;5120616;28;20523;-58
2023/06/22 06:48:01;;;;;;;12.13;10.93;;;21.80;99.90;;;;;;5120752;28;20825;-58
2023/06/22 06:50:30;;;;;;;13.30;11.90;;;21.80;99.90;;;;;;5120584;28;20817;-58
2023/06/22 06:52:59;;;;;;;13.33;12.13;;;21.80;99.90;;;;;;5120365;28;20459;-59
2023/06/22 06:55:26;;;;;;;14.00;12.60;;;21.70;99.90;;;;;;5120276;28;20474;-59
2023/06/22 06:57:53;;;;;;;12.43;11.43;;;21.50;99.90;;;;;;5120875;28;20776;-59
2023/06/22 07:00:21;;;;;;;13.00;11.70;;;21.50;1.00;;;;;;5106563;28;20475;-56
2023/06/22 07:02:48;;;;;;;14.67;13.50;;;21.50;1.00;;;;;;5099525;28;20487;-58
2023/06/22 07:05:15;;;;;;;15.23;13.93;;;21.30;1.00;;;;;;5100582;28;20874;-54
2023/06/22 07:07:44;;;;;;;14.30;13.10;;;21.40;1.00;;;;;;5100094;28;20463;-55
2023/06/22 07:10:11;;;;;;;13.70;12.50;;;21.40;1.00;;;;;;5099295;28;20963;-55
2023/06/22 07:12:39;;;;;;;14.63;13.37;;;21.40;1.00;;;;;;5100019;28;20809;-56
2023/06/22 07:15:08;;;;;;;15.27;13.77;;;21.50;1.00;;;;;;5099497;28;20880;-55
2023/06/22 07:17:36;;;;;;;14.47;13.07;;;21.40;1.00;;;;;;5099653;28;20460;-55
2023/06/22 07:20:03;;;;;;;17.60;13.77;;;21.30;1.00;;;;;;5099658;28;20457;-55
2023/06/22 07:22:31;;;;;;;13.73;12.40;;;21.20;1.00;;;;;;5099789;28;20464;-55
2023/06/22 07:24:59;;;;;;;16.43;14.73;;;21.10;1.00;;;;;;5099171;28;20468;-55
2023/06/22 07:27:26;;;;;;;17.03;15.50;;;21.00;41.00;;;;;;5099572;28;20504;-56
2023/06/22 07:29:55;;;;;;;17.00;14.83;;;20.80;99.90;;;;;;5099604;28;20587;-54
2023/06/22 07:32:22;;;;;;;20.00;15.77;;;20.90;99.90;;;;;;5099694;28;20741;-58
2023/06/22 07:34:50;;;;;;;17.57;16.17;;;20.90;99.90;;;;;;5102399;28;20520;-60
2023/06/22 07:37:17;;;;;;;18.70;16.90;;;20.90;99.90;;;;;;5118993;28;20473;-59
2023/06/22 07:39:44;;;;;;;19.23;17.50;;;20.80;99.90;;;;;;5119309;27;20507;-59
2023/06/22 07:42:12;;;;;;;18.30;16.63;;;21.10;1.00;;;;;;5119735;28;20465;-58
2023/06/22 07:44:39;;;;;;;18.10;16.53;;;21.30;1.00;;;;;;5119897;28;20455;-59
2023/06/22 07:47:07;;;;;;;17.97;16.37;;;21.50;1.00;;;;;;5119174;27;21675;-58
2023/06/22 07:49:34;;;;;;;19.77;17.97;;;22.20;1.00;;;;;;5118930;28;20940;-58
2023/06/22 07:52:01;;;;;;;15.40;14.10;;;22.90;99.90;;;;;;5117087;28;20493;-59
2023/06/22 07:54:29;;;;;;;18.03;16.33;;;22.80;99.90;;;;;;5116245;28;20562;-59
2023/06/22 07:56:56;;;;;;;18.40;16.90;;;23.50;99.90;;;;;;5116185;28;20459;-59
2023/06/22 07:59:24;;;;;;;16.60;14.90;;;24.10;99.90;;;;;;5117011;28;20455;-58
2023/06/22 08:01:51;;;;;;;17.77;16.17;;;24.30;1.00;;;;;;5101039;28;20508;-57
2023/06/22 08:04:19;;;;;;;16.40;14.80;;;24.30;1.00;;;;;;5095316;28;20459;-59
2023/06/22 08:06:46;;;;;;;16.23;14.83;;;23.90;1.00;;;;;;5104287;28;20476;-58
2023/06/22 08:09:13;;;;;;;17.40;15.80;;;24.10;1.00;;;;;;5116977;28;20808;-58
2023/06/22 08:11:41;;;;;;;17.37;15.90;;;23.90;1.00;;;;;;5117249;28;20459;-58
2023/06/22 08:14:08;;;;;;;15.90;14.60;;;24.40;1.00;;;;;;5117690;28;20689;-58
2023/06/22 08:16:36;;;;;;;16.50;15.10;;;25.00;1.00;;;;;;5117670;27;20461;-59
2023/06/22 08:19:03;;;;;;;15.53;14.13;;;25.30;1.00;;;;;;5113350;28;20461;-59
2023/06/22 08:21:30;;;;;;;17.23;15.60;;;25.30;1.00;;;;;;5117242;28;20778;-58
2023/06/22 08:23:57;;;;;;;15.03;13.53;;;25.70;1.00;;;;;;5118151;28;20463;-60
2023/06/22 08:26:25;;;;;;;15.40;14.10;;;25.90;1.00;;;;;;5118913;28;20442;-59
2023/06/22 08:28:52;;;;;;;13.80;12.70;;;26.20;1.00;;;;;;5118082;28;20876;-59
2023/06/22 08:31:19;;;;;;;14.40;13.03;;;26.40;99.90;;;;;;5116398;28;20760;-59
2023/06/22 08:33:48;;;;;;;14.00;12.90;;;26.70;1.00;;;;;;5097984;28;20456;-58
2023/06/22 08:36:16;;;;;;;13.37;12.37;;;27.00;1.00;;;;;;5112623;28;20904;-58
2023/06/22 08:38:43;;;;;;;16.20;14.90;;;27.30;1.00;;;;;;5118838;28;20583;-59
2023/06/22 08:41:10;;;;;;;15.13;13.77;;;27.40;1.00;;;;;;5117825;28;20460;-58
2023/06/22 08:43:37;;;;;;;13.50;12.43;;;27.60;1.00;;;;;;5117673;28;20460;-58
2023/06/22 08:46:04;;;;;;;13.17;12.07;;;28.00;1.00;;;;;;5101043;28;20480;-58
2023/06/22 08:48:31;;;;;;;13.50;12.43;;;28.30;1.00;;;;;;5098827;28;20912;-58
2023/06/22 08:51:00;;;;;;;12.60;11.50;;;28.40;1.00;;;;;;5118431;28;20502;-59
2023/06/22 08:53:27;;;;;;;13.20;12.20;;;29.00;99.90;;;;;;5118727;28;20456;-59
2023/06/22 08:55:54;;;;;;;13.60;12.50;;;29.00;99.90;;;;;;5118003;28;20464;-59
2023/06/22 08:58:21;;;;;;;11.77;10.70;;;28.80;99.90;;;;;;5117921;28;20459;-60
2023/06/22 09:00:50;;;;;;;11.77;10.87;;;29.30;99.90;;;;;;5112158;28;20520;-60
2023/06/22 09:03:17;;;;;;;11.07;10.27;;;29.60;1.00;;;;;;5097373;28;20533;-60
2023/06/22 09:05:46;;;;;;;11.53;10.43;;;29.60;1.00;;;;;;5097676;28;20453;-60
2023/06/22 09:08:14;;;;;;;11.93;11.00;;;29.90;99.90;;;;;;5098049;28;20518;-59
2023/06/22 09:10:41;;;;;;;12.13;11.13;;;30.20;1.00;;;;;;5106309;28;20495;-60
2023/06/22 09:13:09;;;;;;;13.30;11.97;;;30.30;1.00;;;;;;5100155;28;20885;-63
2023/06/22 09:15:36;;;;;;;11.27;10.23;;;30.60;1.00;;;;;;5106195;28;20549;-61
2023/06/22 09:18:04;;;;;;;10.93;10.03;;;30.50;1.00;;;;;;5107245;28;20465;-60
2023/06/22 09:20:31;;;;;;;10.03;9.03;;;30.30;1.00;;;;;;5107665;28;20966;-61
2023/06/22 09:22:58;;;;;;;10.17;9.17;;;30.80;99.90;;;;;;5101813;28;20463;-61
2023/06/22 09:25:27;;;;;;;9.60;8.80;;;31.30;64.60;;;;;;5103306;28;20467;-62
2023/06/22 09:27:54;;;;;;;10.70;9.90;;;31.50;1.00;;;;;;5115558;28;20782;-60
2023/06/22 09:30:23;;;;;;;9.73;8.93;;;31.20;75.70;;;;;;5112677;28;20486;-60
2023/06/22 09:32:51;;;;;;;10.80;9.83;;;30.50;1.00;;;;;;5111669;28;20470;-57
2023/06/22 09:35:18;;;;;;;10.63;9.63;;;29.60;1.00;;;;;;5110304;28;20468;-60
2023/06/22 09:37:45;;;;;;;11.33;10.43;;;29.10;99.90;;;;;;5117871;28;20507;-60
2023/06/22 09:40:15;;;;;;;11.93;11.03;;;29.00;99.90;;;;;;5117099;28;20455;-61
2023/06/22 09:42:44;;;;;;;10.00;9.20;;;29.40;99.90;;;;;;5117540;28;20460;-59
2023/06/22 09:45:12;;;;;;;12.30;11.30;;;30.10;99.90;;;;;;5117134;28;20966;-61
2023/06/22 09:47:39;;;;;;;12.17;11.13;;;30.10;1.00;;;;;;5118007;28;20459;-58
2023/06/22 09:50:07;;;;;;;12.43;10.93;;;29.80;1.00;;;;;;5117599;28;20943;-60
2023/06/22 09:52:34;;;;;;;12.50;11.23;;;29.50;1.00;;;;;;5117012;28;20503;-60
2023/06/22 09:55:03;;;;;;;10.90;10.03;;;29.50;1.00;;;;;;5117272;28;20459;-60
2023/06/22 09:57:30;;;;;;;10.57;9.77;;;29.70;1.00;;;;;;5102160;28;20472;-56
2023/06/22 09:59:59;;;;;;;11.67;10.77;;;29.40;1.00;;;;;;5095311;28;20882;-60
2023/06/22 10:02:26;;;;;;;11.33;10.40;;;28.90;99.90;;;;;;5096564;28;20906;-60
2023/06/22 10:04:53;;;;;;;10.47;9.67;;;28.90;99.90;;;;;;5097411;28;20739;-60
2023/06/22 10:07:20;;;;;;;11.00;10.10;;;28.90;1.00;;;;;;5097595;28;20456;-59
2023/06/22 10:09:48;;;;;;;10.80;10.00;;;29.20;1.00;;;;;;5097365;28;20485;-60
2023/06/22 10:12:15;;;;;;;11.07;10.17;;;29.30;99.90;;;;;;5096251;28;20768;-59
2023/06/22 10:14:42;;;;;;;11.87;10.97;;;29.80;1.00;;;;;;5096267;28;20464;-59
2023/06/22 10:17:10;;;;;;;13.50;12.23;;;30.20;1.00;;;;;;5096735;28;20460;-60
2023/06/22 10:19:38;;;;;;;12.53;11.43;;;30.10;1.00;;;;;;5096765;28;20467;-58
2023/06/22 10:22:06;;;;;;;11.97;11.07;;;29.90;1.00;;;;;;5096646;28;20486;-49
2023/06/22 10:24:33;;;;;;;12.27;11.07;;;29.90;1.00;;;;;;5115210;27;20471;-60
2023/06/22 10:27:01;;;;;;;12.83;11.73;;;29.70;1.00;;;;;;5123060;28;20887;-61
2023/06/22 10:29:28;;;;;;;12.00;11.17;;;29.70;1.00;;;;;;5116516;28;20554;-62
2023/06/22 10:31:55;;;;;;;12.53;11.53;;;29.70;1.00;;;;;;5115829;28;20466;-59
2023/06/22 10:34:24;;;;;;;10.57;9.73;;;29.00;99.90;;;;;;5115399;28;20459;-60
2023/06/22 10:36:51;;;;;;;11.33;9.90;;;28.50;99.90;;;;;;5115817;28;20463;-61
2023/06/22 10:39:18;;;;;;;10.50;9.70;;;28.60;99.90;;;;;;5115632;28;20447;-60
2023/06/22 10:41:45;;;;;;;10.33;9.53;;;28.50;99.90;;;;;;5116593;28;20464;-60
2023/06/22 10:44:13;;;;;;;10.73;9.90;;;28.50;99.90;;;;;;5098153;28;20438;-59
2023/06/22 10:46:40;;;;;;;9.80;8.97;;;28.40;99.90;;;;;;5094562;28;20469;-61
2023/06/22 10:49:07;;;;;;;11.63;10.73;;;28.20;99.90;;;;;;5095820;28;20843;-59
2023/06/22 10:51:36;;;;;;;11.00;10.20;;;27.80;99.90;;;;;;5096506;28;20489;-59
2023/06/22 10:54:04;;;;;;;10.77;9.70;;;27.60;99.90;;;;;;5095306;28;20464;-59
2023/06/22 10:56:33;;;;;;;11.03;10.03;;;27.20;99.90;;;;;;5097935;28;20467;-59
2023/06/22 10:59:01;;;;;;;12.27;11.17;;;26.90;99.90;;;;;;5099802;28;20566;-59
2023/06/22 11:01:31;;;;;;;11.63;10.73;;;26.90;99.90;;;;;;5099909;28;20541;-59
2023/06/22 11:03:58;;;;;;;11.87;10.87;;;26.80;99.90;;;;;;5099371;28;20488;-61
2023/06/22 11:06:25;;;;;;;11.00;10.00;;;26.80;99.90;;;;;;5098519;28;20533;-62
2023/06/22 11:08:54;;;;;;;12.83;11.70;;;26.70;99.90;;;;;;5098229;28;20471;-62
2023/06/22 11:11:21;;;;;;;14.50;12.97;;;26.60;99.90;;;;;;5098443;28;20492;-62
2023/06/22 11:13:48;;;;;;;14.43;12.90;;;26.50;99.90;;;;;;5097799;28;20465;-62
2023/06/22 11:16:15;;;;;;;13.90;12.60;;;26.20;99.90;;;;;;5098279;28;20460;-62
2023/06/22 11:18:43;;;;;;;13.97;12.23;;;25.80;1.00;;;;;;5098345;28;20500;-60
2023/06/22 11:21:10;;;;;;;13.73;12.33;;;25.60;1.00;;;;;;5098742;28;20902;-61
2023/06/22 11:23:37;;;;;;;14.93;13.50;;;25.50;1.00;;;;;;5100053;28;20771;-61
2023/06/22 11:26:06;;;;;;;15.27;13.97;;;25.30;1.00;;;;;;5099487;28;20461;-58
2023/06/22 11:28:33;;;;;;;16.33;14.63;;;24.90;1.00;;;;;;5102403;28;20464;-59
2023/06/22 11:31:00;;;;;;;17.43;16.03;;;24.40;99.90;;;;;;5115074;28;20507;-62
2023/06/22 11:33:27;;;;;;;17.20;15.50;;;24.00;1.00;;;;;;5098672;28;20518;-60
2023/06/22 11:35:56;;;;;;;17.90;16.03;;;23.70;77.10;;;;;;5098892;28;20460;-58
2023/06/22 11:38:23;;;;;;;18.10;16.07;;;23.40;99.90;;;;;;5099307;28;20439;-58
2023/06/22 11:40:50;;;;;;;18.20;16.30;;;23.20;1.00;;;;;;5111546;28;20467;-59
2023/06/22 11:43:19;;;;;;;17.73;15.93;;;23.20;1.00;;;;;;5117974;28;20460;-60
2023/06/22 11:45:46;;;;;;;18.80;17.10;;;23.30;99.90;;;;;;5114662;28;20476;-59
2023/06/22 11:48:13;;;;;;;17.80;15.80;;;23.40;99.90;;;;;;5114361;28;20467;-60
2023/06/22 11:50:40;;;;;;;20.40;17.90;;;23.50;99.90;;;;;;5118234;28;20479;-59
2023/06/22 11:53:08;;;;;;;20.80;18.73;;;23.60;1.00;;;;;;5119285;28;20570;-59
2023/06/22 11:55:35;;;;;;;20.53;18.50;;;23.40;1.00;;;;;;5119539;28;20460;-59
2023/06/22 11:58:03;;;;;;;20.77;18.90;;;23.30;99.90;;;;;;5117814;28;20490;-59
2023/06/22 12:00:32;;;;;;;20.50;18.50;;;23.10;99.90;;;;;;5115009;28;20903;-56
2023/06/22 12:03:01;;;;;;;20.77;18.67;;;23.10;99.90;;;;;;5116408;28;20609;-58
2023/06/22 12:05:28;;;;;;;22.33;19.93;;;23.20;28.70;;;;;;5116975;28;20575;-59
2023/06/22 12:07:56;;;;;;;21.30;19.37;;;23.30;1.00;;;;;;5116834;28;20456;-59
2023/06/22 12:10:24;;;;;;;19.80;18.00;;;23.40;1.00;;;;;;5118274;28;20560;-60
2023/06/22 12:12:52;;;;;;;21.30;19.30;;;23.50;1.00;;;;;;5117079;28;20470;-61
2023/06/22 12:15:19;;;;;;;20.77;18.97;;;23.60;1.00;;;;;;5117922;28;20829;-59
2023/06/22 12:17:48;;;;;;;21.50;19.67;;;23.60;99.90;;;;;;5118900;28;20872;-60
2023/06/22 12:20:16;;;;;;;22.10;19.97;;;23.50;99.90;;;;;;5118881;28;20734;-59
2023/06/22 12:22:43;;;;;;;21.23;19.33;;;23.50;99.90;;;;;;5118212;28;20469;-59
2023/06/22 12:25:11;;;;;;;19.47;17.67;;;23.50;1.00;;;;;;5118759;28;20551;-59
2023/06/22 12:27:39;;;;;;;22.13;19.83;;;23.40;99.90;;;;;;5118798;28;20891;-60
2023/06/22 12:30:07;;;;;;;21.30;19.40;;;23.30;99.90;;;;;;5118316;28;20537;-59
2023/06/22 12:32:34;;;;;;;22.70;20.60;;;23.10;1.00;;;;;;5118640;28;20455;-60
2023/06/22 12:35:04;;;;;;;23.10;21.00;;;23.20;99.90;;;;;;5119075;28;20459;-59
2023/06/22 12:37:33;;;;;;;21.87;19.93;;;23.30;1.00;;;;;;5118867;28;20463;-59
2023/06/22 12:40:00;;;;;;;21.67;19.87;;;23.50;1.00;;;;;;5118018;28;20463;-63
2023/06/22 12:42:28;;;;;;;21.93;20.03;;;23.70;1.00;;;;;;5118334;28;20550;-64
2023/06/22 12:44:55;;;;;;;22.07;20.03;;;23.80;1.00;;;;;;5118797;28;20460;-64